createdAt,value
2022-08-11T00:01:34.323Z,4.95
2022-08-11T00:04:07.460Z,4.03
2022-08-11T00:09:20.069Z,4.20
2022-08-11T00:11:54.103Z,3.90
2022-08-11T00:14:37.848Z,4.82
2022-08-11T00:17:12.168Z,5.18
2022-08-11T00:20:13.978Z,5.07
2022-08-11T00:22:30.867Z,4.95
2022-08-11T00:25:02.348Z,4.82
2022-08-11T00:27:34.848Z,4.78
2022-08-11T00:30:02.784Z,4.60
2022-08-11T00:32:30.904Z,5.18
2022-08-11T00:35:53.665Z,4.90
2022-08-11T00:37:54.704Z,4.53
2022-08-11T00:40:47.672Z,4.78
2022-08-11T00:43:20.298Z,4.90
2022-08-11T00:46:16.763Z,4.50
2022-08-11T00:49:13.081Z,4.78
2022-08-11T00:52:21.991Z,4.72
2022-08-11T00:55:01.083Z,4.80
2022-08-11T00:57:51.614Z,4.63
2022-08-11T01:00:25.052Z,4.28
2022-08-11T01:02:52.112Z,4.72
2022-08-11T01:05:56.844Z,4.78
2022-08-11T01:08:35.929Z,4.90
2022-08-11T01:11:23.640Z,4.85
2022-08-11T01:14:33.714Z,4.20
2022-08-11T01:17:32.394Z,4.60
2022-08-11T01:20:47.639Z,4.20
2022-08-11T01:23:23.495Z,4.60
2022-08-11T01:26:28.027Z,4.10
2022-08-11T01:29:17.096Z,4.70
2022-08-11T01:32:10.183Z,4.20
2022-08-11T01:35:05.304Z,4.97
2022-08-11T01:37:58.245Z,4.35
2022-08-11T01:40:38.938Z,4.20
2022-08-11T01:44:02.204Z,4.10
2022-08-11T01:46:44.032Z,4.78
2022-08-11T01:50:08.228Z,4.53
2022-08-11T01:52:43.359Z,4.80
2022-08-11T01:55:58.100Z,4.30
2022-08-11T01:58:43.875Z,4.20
2022-08-11T02:01:26.646Z,4.68
2022-08-11T02:04:44.621Z,3.95
2022-08-11T02:07:43.229Z,4.25
2022-08-11T02:11:06.207Z,4.05
2022-08-11T02:13:52.848Z,4.07
2022-08-11T02:16:44.619Z,3.85
2022-08-11T02:19:36.253Z,4.43
2022-08-11T02:22:48.398Z,4.35
2022-08-11T02:25:31.875Z,4.32
2022-08-11T02:32:25.626Z,3.70
2022-08-11T02:34:44.093Z,4.63
2022-08-11T02:37:45.353Z,4.00
2022-08-11T02:40:22.322Z,3.97
2022-08-11T02:42:55.509Z,4.28
2022-08-11T02:45:42.113Z,3.88
2022-08-11T02:48:33.726Z,3.90
2022-08-11T02:51:22.536Z,4.47
2022-08-11T02:54:07.767Z,4.35
2022-08-11T02:56:47.252Z,4.05
2022-08-11T02:59:48.705Z,3.85
2022-08-11T03:02:35.103Z,4.00
2022-08-11T03:05:13.839Z,3.85
2022-08-11T03:07:40.988Z,4.25
2022-08-11T03:10:22.279Z,4.28
2022-08-11T03:13:15.576Z,4.18
2022-08-11T03:16:04.232Z,3.88
2022-08-11T03:18:51.749Z,4.18
2022-08-11T03:21:58.410Z,4.88
2022-08-11T03:24:26.379Z,3.83
2022-08-11T03:27:15.075Z,4.22
2022-08-11T03:30:05.856Z,4.20
2022-08-11T03:33:31.807Z,5.15
2022-08-11T03:37:15.347Z,4.15
2022-08-11T03:39:52.617Z,4.63
2022-08-11T03:42:41.711Z,4.72
2022-08-11T03:45:28.738Z,4.82
2022-08-11T03:48:09.754Z,4.60
2022-08-11T03:50:58.721Z,4.72
2022-08-11T03:53:44.054Z,4.25
2022-08-11T03:56:11.687Z,4.47
2022-08-11T03:58:47.283Z,4.43
2022-08-11T04:01:44.693Z,3.72
2022-08-11T04:04:45.413Z,4.50
2022-08-11T04:07:37.415Z,4.35
2022-08-11T04:10:13.602Z,4.50
2022-08-11T04:13:17.944Z,4.25
2022-08-11T04:16:11.515Z,4.53
2022-08-11T04:19:17.248Z,4.35
2022-08-11T04:22:15.574Z,4.35
2022-08-11T04:25:22.667Z,5.07
2022-08-11T04:27:49.710Z,4.10
2022-08-11T04:30:27.737Z,4.55
2022-08-11T04:33:34.381Z,5.05
2022-08-11T04:36:09.746Z,4.15
2022-08-11T04:39:20.415Z,4.30
2022-08-11T04:42:32.001Z,4.78
2022-08-11T04:45:39.208Z,4.43
2022-08-11T04:48:53.277Z,4.63
2022-08-11T04:52:16.712Z,4.65
2022-08-11T04:58:10.774Z,4.45
2022-08-11T05:01:27.007Z,4.50
2022-08-11T05:04:28.315Z,4.10
2022-08-11T05:07:20.288Z,4.32
2022-08-11T05:10:29.493Z,4.68
2022-08-11T05:13:21.546Z,4.60
2022-08-11T05:16:17.863Z,4.47
2022-08-11T05:19:16.238Z,4.88
2022-08-11T05:22:13.454Z,4.35
2022-08-11T05:25:10.189Z,5.13
2022-08-11T05:28:04.580Z,4.93
2022-08-11T05:30:51.589Z,4.75
2022-08-11T05:33:49.153Z,4.90
2022-08-11T05:36:31.391Z,4.78
2022-08-11T05:39:21.810Z,5.40
2022-08-11T05:42:29.953Z,5.13
2022-08-11T05:45:58.140Z,4.30
2022-08-11T05:48:39.210Z,4.80
2022-08-11T05:51:30.416Z,4.63
2022-08-11T05:54:28.211Z,4.57
2022-08-11T05:57:00.208Z,5.15
2022-08-11T05:59:29.425Z,5.05
2022-08-11T06:02:02.494Z,5.13
2022-08-11T06:04:30.422Z,5.00
2022-08-11T06:06:59.433Z,5.22
2022-08-11T06:09:38.973Z,5.40
2022-08-11T06:12:19.295Z,5.57
2022-08-11T06:14:49.681Z,5.00
2022-08-11T06:17:24.379Z,5.05
2022-08-11T06:20:07.147Z,5.20
2022-08-11T06:22:35.444Z,5.38
2022-08-11T06:25:05.063Z,5.18
2022-08-11T06:27:35.719Z,4.38
2022-08-11T06:30:14.004Z,5.38
2022-08-11T06:32:46.738Z,5.65
2022-08-11T06:35:30.331Z,6.25
2022-08-11T06:41:26.781Z,5.18
2022-08-11T06:44:51.830Z,6.18
2022-08-11T06:47:21.093Z,6.15
2022-08-11T06:50:07.732Z,6.25
2022-08-11T06:52:37.041Z,6.25
2022-08-11T06:55:55.542Z,6.40
2022-08-11T06:58:48.509Z,6.03
2022-08-11T07:01:24.940Z,5.47
2022-08-11T07:04:03.048Z,5.68
2022-08-11T07:06:41.630Z,5.38
2022-08-11T07:10:02.911Z,5.80
2022-08-11T07:13:01.833Z,5.65
2022-08-11T07:16:12.485Z,6.22
2022-08-11T07:18:53.036Z,6.03
2022-08-11T07:22:02.821Z,5.60
2022-08-11T07:25:08.686Z,5.78
2022-08-11T07:28:15.427Z,5.95
2022-08-11T07:30:43.550Z,6.28
2022-08-11T07:34:05.565Z,6.45
2022-08-11T07:36:05.406Z,5.88
2022-08-11T07:38:47.385Z,5.90
2022-08-11T07:41:16.876Z,6.00
2022-08-11T07:43:49.293Z,5.85
2022-08-11T07:46:36.964Z,5.47
2022-08-11T07:49:24.940Z,6.03
2022-08-11T07:52:12.799Z,6.05
2022-08-11T07:54:41.877Z,6.50
2022-08-11T07:58:08.723Z,6.47
2022-08-11T08:00:40.248Z,5.50
2022-08-11T08:03:27.389Z,6.25
2022-08-11T08:06:35.513Z,6.60
2022-08-11T08:09:27.484Z,5.55
2022-08-11T08:12:15.728Z,6.32
2022-08-11T08:15:08.929Z,5.53
2022-08-11T08:18:09.886Z,5.22
2022-08-11T08:21:09.780Z,6.53
2022-08-11T08:23:38.738Z,5.43
2022-08-11T08:26:31.399Z,5.78
2022-08-11T08:29:22.354Z,5.22
2022-08-11T08:32:11.044Z,4.53
2022-08-11T08:34:43.707Z,5.03
2022-08-11T08:37:16.057Z,5.20
2022-08-11T08:40:06.616Z,4.75
2022-08-11T08:42:45.407Z,5.18
2022-08-11T08:45:16.544Z,4.40
2022-08-11T08:47:53.577Z,3.22
2022-08-11T08:50:27.993Z,3.42
2022-08-11T08:53:06.007Z,3.42
2022-08-11T08:55:35.627Z,3.58
2022-08-11T08:58:03.157Z,3.40
2022-08-11T09:00:44.001Z,4.45
2022-08-11T09:03:38.908Z,3.28
2022-08-11T09:06:09.794Z,4.15
2022-08-11T09:08:40.988Z,4.55
2022-08-11T09:11:30.810Z,4.70
2022-08-11T09:14:03.214Z,4.03
2022-08-11T09:16:39.501Z,4.45
2022-08-11T09:19:11.192Z,4.07
2022-08-11T09:21:48.236Z,4.00
2022-08-11T09:24:40.170Z,3.70
2022-08-11T09:27:08.746Z,3.88
2022-08-11T09:29:39.042Z,4.00
2022-08-11T09:32:07.423Z,3.60
2022-08-11T09:34:36.902Z,4.05
2022-08-11T09:37:28.476Z,3.38
2022-08-11T09:40:33.789Z,4.18
2022-08-11T09:43:25.546Z,5.00
2022-08-11T09:45:57.896Z,3.95
2022-08-11T09:48:27.627Z,4.15
2022-08-11T09:50:59.159Z,3.90
2022-08-11T09:53:35.711Z,4.55
2022-08-11T09:56:33.886Z,4.03
2022-08-11T09:59:04.060Z,4.18
2022-08-11T10:01:36.207Z,4.50
2022-08-11T10:04:15.680Z,4.53
2022-08-11T10:07:05.538Z,4.25
2022-08-11T10:09:59.641Z,4.25
2022-08-11T10:12:35.290Z,4.80
2022-08-11T10:15:23.644Z,5.32
2022-08-11T10:18:15.914Z,4.32
2022-08-11T10:20:45.685Z,5.22
2022-08-11T10:23:32.608Z,4.50
2022-08-11T10:26:18.686Z,4.50
2022-08-11T10:29:09.869Z,4.47
2022-08-11T10:31:57.426Z,4.22
2022-08-11T10:34:29.149Z,4.85
2022-08-11T10:36:58.137Z,4.13
2022-08-11T10:39:27.386Z,4.50
2022-08-11T10:42:21.023Z,4.00
2022-08-11T10:45:25.143Z,4.57
2022-08-11T10:47:55.746Z,3.95
2022-08-11T10:50:43.177Z,3.70
2022-08-11T10:53:29.276Z,3.45
2022-08-11T10:56:17.758Z,3.75
2022-08-11T10:58:52.191Z,3.95
2022-08-11T11:01:26.119Z,4.05
2022-08-11T11:03:59.104Z,3.85
2022-08-11T11:06:56.753Z,3.85
2022-08-11T11:09:35.333Z,4.15
2022-08-11T11:12:43.813Z,4.32
2022-08-11T11:15:31.991Z,3.45
2022-08-11T11:18:09.542Z,3.58
2022-08-11T11:20:47.344Z,2.40
2022-08-11T11:23:18.852Z,3.15
2022-08-11T11:26:11.334Z,3.45
2022-08-11T11:28:56.759Z,2.90
2022-08-11T11:31:48.111Z,3.50
2022-08-11T11:35:09.175Z,3.25
2022-08-11T11:37:40.570Z,2.90
2022-08-11T11:40:14.099Z,3.25
2022-08-11T11:42:44.121Z,3.30
2022-08-11T11:45:22.806Z,2.97
2022-08-11T11:47:54.777Z,2.33
2022-08-11T11:50:35.007Z,2.70
2022-08-11T11:53:06.035Z,2.17
2022-08-11T11:55:34.453Z,2.65
2022-08-11T11:58:22.838Z,2.13
2022-08-11T12:01:10.939Z,1.98
2022-08-11T12:03:39.845Z,1.98
2022-08-11T12:06:09.718Z,1.65
2022-08-11T12:08:37.950Z,2.20
2022-08-11T12:11:27.996Z,2.30
2022-08-11T12:14:02.346Z,2.45
2022-08-11T12:16:32.981Z,2.75
2022-08-11T12:19:11.851Z,2.42
2022-08-11T12:22:04.146Z,3.38
2022-08-11T12:24:52.880Z,2.70
2022-08-11T12:27:24.232Z,2.30
2022-08-11T12:30:11.548Z,1.90
2022-08-11T12:32:43.682Z,2.28
2022-08-11T12:35:14.620Z,2.47
2022-08-11T12:37:47.894Z,2.30
2022-08-11T12:41:11.928Z,1.92
2022-08-11T12:43:57.225Z,2.38
2022-08-11T12:46:33.188Z,2.25
2022-08-11T12:49:33.296Z,2.13
2022-08-11T12:52:15.515Z,2.42
2022-08-11T12:55:13.523Z,2.67
2022-08-11T12:58:06.436Z,2.30
2022-08-11T13:00:52.616Z,2.05
2022-08-11T13:03:39.682Z,2.63
2022-08-11T13:06:08.011Z,2.40
2022-08-11T13:08:38.423Z,2.60
2022-08-11T13:11:25.500Z,2.47
2022-08-11T13:14:15.378Z,2.38
2022-08-11T13:17:04.383Z,2.17
2022-08-11T13:19:33.231Z,2.28
2022-08-11T13:22:02.833Z,2.60
2022-08-11T13:24:34.412Z,2.30
2022-08-11T13:27:03.958Z,2.20
2022-08-11T13:29:32.716Z,2.30
2022-08-11T13:32:00.996Z,2.40
2022-08-11T13:34:33.100Z,2.22
2022-08-11T13:37:04.679Z,2.28
2022-08-11T13:39:35.862Z,2.78
2022-08-11T13:42:05.964Z,1.92
2022-08-11T13:44:38.861Z,1.90
2022-08-11T13:47:09.175Z,2.33
2022-08-11T13:49:39.682Z,2.45
2022-08-11T13:52:17.647Z,3.05
2022-08-11T13:54:48.994Z,2.30
2022-08-11T13:58:08.875Z,2.00
2022-08-11T14:00:23.590Z,2.28
2022-08-11T14:02:58.366Z,2.40
2022-08-11T14:05:45.908Z,2.20
2022-08-11T14:08:37.584Z,2.78
2022-08-11T14:12:22.741Z,2.10
2022-08-11T14:14:22.975Z,1.92
2022-08-11T14:16:53.446Z,2.22
2022-08-11T14:19:26.548Z,1.88
2022-08-11T14:24:49.698Z,2.20
2022-08-11T14:28:32.596Z,2.50
2022-08-11T14:30:29.297Z,2.10
2022-08-11T14:33:00.500Z,2.20
2022-08-11T14:35:44.422Z,2.38
2022-08-11T14:38:15.014Z,2.05
2022-08-11T14:41:03.177Z,1.95
2022-08-11T14:44:04.865Z,2.10
2022-08-11T14:46:57.783Z,2.08
2022-08-11T14:49:26.601Z,2.38
2022-08-11T14:51:57.939Z,2.40
2022-08-11T14:54:45.859Z,2.50
2022-08-11T14:57:18.262Z,2.60
2022-08-11T15:00:08.425Z,2.60
2022-08-11T15:02:58.478Z,2.00
2022-08-11T15:05:26.809Z,2.13
2022-08-11T15:07:58.951Z,2.40
2022-08-11T15:10:27.096Z,2.40
2022-08-11T15:12:54.682Z,2.03
2022-08-11T15:15:42.509Z,2.50
2022-08-11T15:18:17.005Z,2.55
2022-08-11T15:21:03.213Z,2.17
2022-08-11T15:23:50.212Z,2.97
2022-08-11T15:26:43.237Z,2.72
2022-08-11T15:29:30.820Z,2.70
2022-08-11T15:32:17.754Z,2.85
2022-08-11T15:35:08.040Z,3.00
2022-08-11T15:37:37.833Z,2.90
2022-08-11T15:40:48.181Z,2.65
2022-08-11T15:43:34.114Z,2.72
2022-08-11T15:46:08.299Z,2.95
2022-08-11T15:48:47.593Z,2.67
2022-08-11T15:51:17.774Z,2.33
2022-08-11T15:53:58.788Z,3.03
2022-08-11T15:56:29.584Z,2.85
2022-08-11T15:59:41.683Z,2.35
2022-08-11T16:02:16.385Z,2.53
2022-08-11T16:04:46.935Z,2.70
2022-08-11T16:07:16.887Z,2.55
2022-08-11T16:09:54.024Z,2.75
2022-08-11T16:12:30.612Z,2.05
2022-08-11T16:15:23.662Z,2.65
2022-08-11T16:17:56.632Z,2.60
2022-08-11T16:23:02.014Z,2.75
2022-08-11T16:27:01.642Z,2.70
2022-08-11T16:28:23.985Z,2.60
2022-08-11T16:30:56.745Z,2.80
2022-08-11T16:33:50.259Z,2.33
2022-08-11T16:36:34.262Z,3.35
2022-08-11T16:39:03.025Z,2.90
2022-08-11T16:41:51.685Z,2.60
2022-08-11T16:44:40.441Z,2.67
2022-08-11T16:47:11.716Z,2.60
2022-08-11T16:49:53.271Z,3.65
2022-08-11T16:52:22.266Z,3.33
2022-08-11T16:54:49.721Z,2.83
2022-08-11T16:57:43.940Z,2.65
2022-08-11T17:00:16.720Z,2.72
2022-08-11T17:03:12.545Z,2.97
2022-08-11T17:06:08.803Z,3.10
2022-08-11T17:09:05.403Z,3.03
2022-08-11T17:11:57.325Z,3.50
2022-08-11T17:14:37.300Z,2.83
2022-08-11T17:17:30.244Z,2.83
2022-08-11T17:20:41.340Z,2.30
2022-08-11T17:23:13.237Z,2.42
2022-08-11T17:26:03.729Z,2.33
2022-08-11T17:28:34.712Z,2.85
2022-08-11T17:31:22.465Z,2.90
2022-08-11T17:34:11.108Z,2.53
2022-08-11T17:36:43.169Z,2.80
2022-08-11T17:39:17.772Z,2.40
2022-08-11T17:42:04.354Z,2.78
2022-08-11T17:44:52.370Z,2.17
2022-08-11T17:47:39.279Z,2.25
2022-08-11T17:50:16.743Z,2.30
2022-08-11T17:53:05.193Z,2.47
2022-08-11T17:55:53.891Z,3.08
2022-08-11T17:58:40.548Z,3.72
2022-08-11T18:01:10.750Z,2.92
2022-08-11T18:03:40.912Z,3.25
2022-08-11T18:06:12.765Z,3.90
2022-08-11T18:09:07.036Z,3.88
2022-08-11T18:12:11.131Z,4.00
2022-08-11T18:15:03.341Z,3.50
2022-08-11T18:17:53.575Z,3.35
2022-08-11T18:20:40.116Z,3.30
2022-08-11T18:23:43.376Z,3.35
2022-08-11T18:26:38.331Z,3.03
2022-08-11T18:29:26.846Z,2.97
2022-08-11T18:32:21.291Z,4.25
2022-08-11T18:35:11.505Z,3.13
2022-08-11T18:38:04.588Z,3.42
2022-08-11T18:40:51.850Z,3.83
2022-08-11T18:43:46.290Z,3.63
2022-08-11T18:46:36.894Z,3.78
2022-08-11T18:50:01.920Z,4.00
2022-08-11T18:55:32.557Z,3.30
2022-08-11T18:58:21.846Z,3.45
2022-08-11T19:01:09.002Z,3.28
2022-08-11T19:03:56.257Z,3.20
2022-08-11T19:06:56.983Z,3.78
2022-08-11T19:09:44.594Z,3.80
2022-08-11T19:12:31.924Z,4.07
2022-08-11T19:15:21.638Z,4.03
2022-08-11T19:18:08.647Z,4.13
2022-08-11T19:20:56.265Z,4.25
2022-08-11T19:23:55.395Z,3.85
2022-08-11T19:26:43.067Z,4.05
2022-08-11T19:30:04.865Z,3.55
2022-08-11T19:32:38.454Z,3.85
2022-08-11T19:35:25.622Z,3.75
2022-08-11T19:38:13.992Z,3.80
2022-08-11T19:41:01.241Z,3.97
2022-08-11T19:43:49.357Z,4.28
2022-08-11T19:46:38.805Z,3.72
2022-08-11T19:49:26.034Z,4.55
2022-08-11T19:52:12.818Z,4.28
2022-08-11T19:55:04.234Z,4.82
2022-08-11T19:57:50.953Z,5.50
2022-08-11T20:00:38.581Z,4.07
2022-08-11T20:03:27.989Z,4.47
2022-08-11T20:06:16.540Z,4.78
2022-08-11T20:09:04.509Z,4.30
2022-08-11T20:11:56.001Z,4.15
2022-08-11T20:14:47.948Z,4.10
2022-08-11T20:17:34.424Z,4.10
2022-08-11T20:20:24.044Z,4.53
2022-08-11T20:23:12.769Z,3.90
2022-08-11T20:26:27.774Z,3.60
2022-08-11T20:29:13.290Z,3.85
2022-08-11T20:32:01.652Z,4.15
2022-08-11T20:34:59.602Z,4.00
2022-08-11T20:37:51.229Z,3.65
2022-08-11T20:40:42.869Z,4.30
2022-08-11T20:44:06.674Z,3.67
2022-08-11T20:46:44.148Z,3.92
2022-08-11T20:49:45.941Z,4.38
2022-08-11T20:52:39.712Z,4.38
2022-08-11T20:55:46.398Z,3.88
2022-08-11T21:01:45.888Z,3.47
2022-08-11T21:04:32.811Z,3.80
2022-08-11T21:07:28.377Z,4.63
2022-08-11T21:10:23.385Z,2.95
2022-08-11T21:13:26.140Z,3.05
2022-08-11T21:16:27.279Z,2.88
2022-08-11T21:19:55.037Z,3.33
2022-08-11T21:22:35.968Z,3.50
2022-08-11T21:25:25.884Z,3.42
2022-08-11T21:28:12.697Z,3.35
2022-08-11T21:30:59.181Z,3.80
2022-08-11T21:33:51.432Z,4.10
2022-08-11T21:36:39.625Z,3.58
2022-08-11T21:39:28.984Z,3.78
2022-08-11T21:42:16.701Z,3.28
2022-08-11T21:45:04.145Z,3.83
2022-08-11T21:47:56.066Z,3.30
2022-08-11T21:50:48.048Z,3.42
2022-08-11T21:53:34.391Z,3.70
2022-08-11T21:56:22.060Z,3.58
2022-08-11T21:59:16.923Z,3.75
2022-08-11T22:02:05.378Z,4.00
2022-08-11T22:04:55.154Z,4.10
2022-08-11T22:07:42.623Z,4.30
2022-08-11T22:10:41.898Z,4.50
2022-08-11T22:13:34.201Z,3.95
2022-08-11T22:16:24.383Z,3.50
2022-08-11T22:19:16.860Z,3.75
2022-08-11T22:22:06.191Z,3.10
2022-08-11T22:24:53.980Z,3.75
2022-08-11T22:27:41.465Z,3.30
2022-08-11T22:30:33.755Z,3.83
2022-08-11T22:33:28.759Z,3.70
2022-08-11T22:36:16.649Z,3.90
2022-08-11T22:39:04.842Z,3.67
2022-08-11T22:41:53.053Z,3.75
2022-08-11T22:44:38.773Z,3.47
2022-08-11T22:47:38.417Z,3.85
2022-08-11T22:50:29.038Z,3.42
2022-08-11T22:53:16.520Z,3.00
2022-08-11T22:56:02.849Z,2.63
2022-08-11T22:58:49.782Z,3.08
2022-08-11T23:01:37.586Z,2.80
2022-08-11T23:04:25.648Z,2.55
2022-08-11T23:07:12.213Z,3.05
2022-08-11T23:09:59.326Z,3.30
2022-08-11T23:12:46.924Z,3.28
2022-08-11T23:15:33.199Z,3.38
2022-08-11T23:18:21.185Z,2.92
2022-08-11T23:21:07.574Z,2.28
2022-08-11T23:23:54.341Z,3.10
2022-08-11T23:26:42.410Z,2.50
2022-08-11T23:29:30.330Z,3.20
2022-08-11T23:32:16.291Z,3.35
2022-08-11T23:35:37.883Z,2.78
2022-08-11T23:38:15.321Z,2.83
2022-08-11T23:41:01.016Z,2.40
2022-08-11T23:43:46.458Z,3.00
2022-08-11T23:46:31.945Z,3.10
2022-08-11T23:49:22.550Z,2.97
2022-08-11T23:52:11.239Z,3.00
2022-08-11T23:54:57.103Z,2.92
2022-08-11T23:57:47.801Z,2.88
